Time;durP1;ratioP1;P1;durP2;ratioP2;P2;SDS_P1;SDS_P2;PMS_P1;PMS_P2;Temp;Humidity;BMP_temperature;BMP_pressure;BME280_temperature;BME280_humidity;BME280_pressure;Samples;Min_cycle;Max_cycle;Signal;HPM_P1;HPM_P2
2022/10/22 00:01:53;;;;;;;2.03;1.37;;;19.50;70.70;;;;;;5030305;28;20276;-51
2022/10/22 00:04:19;;;;;;;1.87;1.67;;;19.30;72.20;;;;;;5030531;28;20189;-49
2022/10/22 00:06:45;;;;;;;5.60;1.50;;;19.10;73.20;;;;;;5030627;28;20610;-48
2022/10/22 00:09:11;;;;;;;1.80;1.60;;;18.90;74.50;;;;;;5030912;28;20557;-49
2022/10/22 00:11:37;;;;;;;1.73;1.53;;;18.80;75.00;;;;;;5030090;28;20255;-49
2022/10/22 00:14:03;;;;;;;1.47;1.37;;;18.80;75.10;;;;;;5030543;28;20416;-48
2022/10/22 00:16:29;;;;;;;1.90;1.57;;;18.70;75.70;;;;;;5039816;28;20290;-52
2022/10/22 00:18:54;;;;;;;1.93;1.40;;;18.50;76.60;;;;;;5030635;28;20470;-51
2022/10/22 00:21:20;;;;;;;2.60;1.30;;;18.40;77.30;;;;;;5030787;28;20200;-49
2022/10/22 00:23:46;;;;;;;2.90;1.80;;;18.40;76.90;;;;;;5030258;28;20264;-50
2022/10/22 00:26:12;;;;;;;2.70;1.53;;;18.50;76.20;;;;;;5028696;28;20201;-49
2022/10/22 00:28:38;;;;;;;2.40;1.20;;;18.50;75.90;;;;;;5033529;28;20204;-52
2022/10/22 00:31:04;;;;;;;2.83;1.50;;;18.60;75.10;;;;;;5040568;28;20244;-49
2022/10/22 00:33:29;;;;;;;1.83;1.10;;;18.60;75.20;;;;;;5030116;28;20519;-48
2022/10/22 00:35:56;;;;;;;2.97;1.10;;;18.60;74.60;;;;;;5030316;28;20604;-50
2022/10/22 00:38:22;;;;;;;2.40;1.23;;;18.70;74.50;;;;;;5037044;28;20239;-49
2022/10/22 00:40:48;;;;;;;3.13;1.13;;;18.50;74.50;;;;;;5043786;28;20416;-48
2022/10/22 00:43:17;;;;;;;3.23;1.20;;;18.60;74.40;;;;;;5033732;28;20201;-51
2022/10/22 00:45:43;;;;;;;1.20;1.10;;;18.70;74.10;;;;;;5034113;28;20645;-49
2022/10/22 00:48:17;;;;;;;2.90;1.03;;;18.70;74.30;;;;;;5033844;28;20450;-50
2022/10/22 00:50:49;;;;;;;1.57;1.00;;;18.70;74.40;;;;;;5034171;28;20939;-49
2022/10/22 00:53:19;;;;;;;3.87;1.03;;;18.60;74.40;;;;;;5032126;28;20474;-53
2022/10/22 00:55:49;;;;;;;2.00;1.00;;;18.60;74.30;;;;;;5033815;28;20566;-49
2022/10/22 00:58:16;;;;;;;2.53;1.10;;;18.60;73.40;;;;;;5040270;28;20482;-48
2022/10/22 01:00:42;;;;;;;1.70;1.27;;;18.50;74.30;;;;;;5053521;28;20437;-52
2022/10/22 01:03:08;;;;;;;1.30;0.90;;;18.70;73.80;;;;;;5053497;28;20906;-48
2022/10/22 01:05:42;;;;;;;1.50;0.80;;;18.90;73.20;;;;;;5053434;28;20189;-49
2022/10/22 01:08:18;;;;;;;1.20;1.10;;;19.00;72.40;;;;;;5053159;28;20601;-49
2022/10/22 01:10:57;;;;;;;1.53;0.90;;;19.10;71.90;;;;;;5053467;28;20803;-48
2022/10/22 01:13:26;;;;;;;1.37;1.00;;;19.20;71.40;;;;;;5053422;28;20434;-48
2022/10/22 01:16:03;;;;;;;1.30;1.20;;;19.00;71.20;;;;;;5048275;28;20501;-48
2022/10/22 01:18:44;;;;;;;1.10;1.00;;;19.10;71.60;;;;;;5033177;28;20499;-48
2022/10/22 01:21:21;;;;;;;1.47;0.90;;;18.90;72.20;;;;;;5040630;28;20516;-49
2022/10/22 01:24:05;;;;;;;0.80;0.80;;;18.60;72.50;;;;;;5052508;28;20922;-48
2022/10/22 01:26:48;;;;;;;1.57;0.80;;;18.60;73.40;;;;;;5053152;28;20495;-49
2022/10/22 01:29:17;;;;;;;4.67;1.03;;;18.60;74.00;;;;;;5053315;28;20863;-52
2022/10/22 01:31:53;;;;;;;3.80;1.20;;;18.40;75.10;;;;;;5052747;28;20944;-48
2022/10/22 01:34:21;;;;;;;2.23;0.97;;;18.20;76.10;;;;;;5053129;28;20462;-50
2022/10/22 01:36:48;;;;;;;1.77;0.80;;;18.00;77.30;;;;;;5052329;28;20486;-48
2022/10/22 01:39:15;;;;;;;1.03;0.97;;;17.80;78.50;;;;;;5053114;28;20431;-48
2022/10/22 01:41:44;;;;;;;3.77;1.23;;;17.80;78.20;;;;;;5035150;28;20420;-49
2022/10/22 01:44:29;;;;;;;2.93;1.07;;;18.00;77.70;;;;;;5032904;28;20428;-48
2022/10/22 01:47:14;;;;;;;2.50;1.07;;;18.20;77.00;;;;;;5038159;28;20931;-50
2022/10/22 01:50:08;;;;;;;1.27;1.03;;;18.30;76.40;;;;;;5052129;28;20470;-48
2022/10/22 01:52:52;;;;;;;1.10;1.00;;;18.20;76.20;;;;;;5048548;28;20907;-48
2022/10/22 01:55:37;;;;;;;3.93;1.10;;;18.30;75.70;;;;;;5052349;28;20492;-48
2022/10/22 01:58:12;;;;;;;2.93;1.10;;;18.40;75.20;;;;;;5052426;28;20540;-49
2022/10/22 02:00:42;;;;;;;3.60;1.10;;;18.60;74.40;;;;;;5053122;28;20480;-49
2022/10/22 02:03:22;;;;;;;1.40;1.00;;;18.60;73.80;;;;;;5052143;28;20431;-51
2022/10/22 02:05:52;;;;;;;3.30;1.10;;;18.70;73.40;;;;;;5052298;28;20938;-52
2022/10/22 02:08:30;;;;;;;2.00;1.00;;;18.70;72.20;;;;;;5052226;28;20526;-51
2022/10/22 02:10:57;;;;;;;1.73;0.80;;;18.80;72.90;;;;;;5052359;28;20407;-51
2022/10/22 02:13:53;;;;;;;3.90;1.20;;;18.60;72.70;;;;;;5050586;28;20506;-53
2022/10/22 02:16:29;;;;;;;3.27;1.50;;;18.80;72.20;;;;;;5042102;28;20541;-51
2022/10/22 02:18:57;;;;;;;2.67;1.00;;;19.00;72.10;;;;;;5032516;28;20434;-52
2022/10/22 02:21:23;;;;;;;3.10;1.13;;;19.00;72.00;;;;;;5032535;28;20451;-52
2022/10/22 02:23:48;;;;;;;2.30;1.10;;;19.10;71.60;;;;;;5031569;28;20931;-52
2022/10/22 02:26:31;;;;;;;1.43;1.00;;;19.10;71.20;;;;;;5032325;28;20432;-52
2022/10/22 02:29:10;;;;;;;1.60;1.10;;;19.20;70.90;;;;;;5032359;28;20196;-52
2022/10/22 02:31:39;;;;;;;2.60;1.07;;;19.20;70.70;;;;;;5031689;28;20431;-52
2022/10/22 02:34:10;;;;;;;2.30;0.90;;;19.20;70.60;;;;;;5032066;28;20432;-53
2022/10/22 02:36:39;;;;;;;0.90;0.90;;;19.20;70.40;;;;;;5031606;28;20843;-52
2022/10/22 02:39:06;;;;;;;2.53;1.00;;;19.30;70.40;;;;;;5042689;28;20426;-51
2022/10/22 02:41:32;;;;;;;1.33;0.90;;;19.30;70.10;;;;;;5033251;28;20721;-52
2022/10/22 02:43:58;;;;;;;1.17;1.00;;;19.30;69.90;;;;;;5031783;28;20494;-52
2022/10/22 02:46:24;;;;;;;0.67;0.63;;;19.30;69.70;;;;;;5032340;28;20229;-52
2022/10/22 02:48:50;;;;;;;2.97;0.90;;;19.30;69.50;;;;;;5031854;28;20193;-50
2022/10/22 02:51:15;;;;;;;1.60;1.00;;;19.20;69.70;;;;;;5031660;28;20729;-53
2022/10/22 02:53:41;;;;;;;1.27;1.17;;;19.00;70.20;;;;;;5030985;28;20200;-52
2022/10/22 02:56:07;;;;;;;2.30;1.10;;;18.90;70.90;;;;;;5031713;28;20968;-52
2022/10/22 02:58:33;;;;;;;0.77;0.70;;;18.60;72.20;;;;;;5031469;28;20263;-53
2022/10/22 03:00:58;;;;;;;1.20;0.83;;;18.30;73.90;;;;;;5031280;28;20928;-52
2022/10/22 03:03:24;;;;;;;1.77;1.10;;;18.30;74.90;;;;;;5013636;28;20280;-53
2022/10/22 03:05:50;;;;;;;1.17;0.90;;;18.20;74.60;;;;;;5031463;28;20194;-52
2022/10/22 03:08:16;;;;;;;1.80;1.00;;;18.10;74.80;;;;;;5029941;28;20243;-52
2022/10/22 03:10:42;;;;;;;1.10;1.00;;;18.00;75.60;;;;;;5031338;28;20895;-52
2022/10/22 03:13:08;;;;;;;1.50;1.10;;;18.20;75.30;;;;;;5031298;28;20596;-52
2022/10/22 03:15:34;;;;;;;1.67;1.00;;;18.30;74.40;;;;;;5041171;28;20519;-53
2022/10/22 03:17:59;;;;;;;0.83;0.80;;;18.30;73.60;;;;;;5030963;28;20331;-51
2022/10/22 03:20:25;;;;;;;1.50;0.80;;;18.40;73.70;;;;;;5031356;28;20258;-50
2022/10/22 03:22:52;;;;;;;1.10;0.90;;;18.50;73.00;;;;;;5031144;28;20247;-53
2022/10/22 03:25:21;;;;;;;2.70;0.87;;;18.40;72.70;;;;;;5031121;28;20219;-50
2022/10/22 03:27:48;;;;;;;1.07;0.80;;;18.50;72.70;;;;;;5030870;28;20515;-49
2022/10/22 03:30:14;;;;;;;1.63;0.83;;;18.40;72.80;;;;;;5031229;28;21091;-52
2022/10/22 03:32:40;;;;;;;2.10;0.90;;;18.40;72.50;;;;;;5030781;28;20511;-52
2022/10/22 03:35:06;;;;;;;0.90;0.80;;;18.20;73.40;;;;;;5029726;28;20243;-48
2022/10/22 03:37:33;;;;;;;3.13;0.97;;;18.00;73.90;;;;;;5030117;28;20237;-48
2022/10/22 03:39:59;;;;;;;0.90;0.73;;;18.00;74.60;;;;;;5045406;28;20532;-52
2022/10/22 03:42:25;;;;;;;0.80;0.80;;;18.30;73.90;;;;;;5012899;28;20443;-51
2022/10/22 03:44:50;;;;;;;2.20;0.90;;;18.50;73.00;;;;;;5031067;28;20197;-52
2022/10/22 03:47:16;;;;;;;1.43;1.17;;;18.40;72.90;;;;;;5030744;28;20185;-52
2022/10/22 03:49:42;;;;;;;0.80;0.80;;;18.30;73.00;;;;;;5031073;28;20224;-50
2022/10/22 03:52:10;;;;;;;0.93;0.93;;;18.10;74.10;;;;;;5030629;28;20212;-48
2022/10/22 03:54:37;;;;;;;1.10;1.00;;;18.00;74.60;;;;;;5030520;28;20200;-52
2022/10/22 03:57:03;;;;;;;2.03;0.97;;;17.80;75.40;;;;;;5030683;28;20575;-50
2022/10/22 03:59:36;;;;;;;0.93;0.70;;;17.60;77.20;;;;;;5030359;28;20477;-52
2022/10/22 04:02:02;;;;;;;0.80;0.80;;;17.40;78.40;;;;;;5030237;28;20752;-52
2022/10/22 04:04:28;;;;;;;2.50;0.90;;;17.30;78.70;;;;;;5030474;28;20421;-49
2022/10/22 04:06:54;;;;;;;1.93;0.80;;;17.50;79.00;;;;;;5030271;28;20443;-53
2022/10/22 04:09:19;;;;;;;0.93;0.80;;;17.60;78.10;;;;;;5031137;28;20196;-52
2022/10/22 04:11:45;;;;;;;1.27;1.20;;;17.60;77.30;;;;;;5030468;28;20209;-52
2022/10/22 04:14:11;;;;;;;1.37;0.83;;;17.50;78.10;;;;;;5034729;28;20656;-51
2022/10/22 04:16:39;;;;;;;3.23;1.10;;;17.30;79.20;;;;;;5042550;28;20300;-50
2022/10/22 04:19:05;;;;;;;0.93;0.70;;;17.40;78.60;;;;;;5017159;28;20205;-52
2022/10/22 04:21:30;;;;;;;1.13;0.87;;;17.50;78.20;;;;;;5034199;28;20435;-49
2022/10/22 04:23:56;;;;;;;1.67;0.97;;;17.70;76.50;;;;;;5034088;28;20435;-52
2022/10/22 04:26:23;;;;;;;1.77;1.00;;;17.90;76.30;;;;;;5033761;28;20219;-52
2022/10/22 04:28:50;;;;;;;0.80;0.80;;;18.20;75.20;;;;;;5034119;28;20200;-52
2022/10/22 04:31:18;;;;;;;0.80;0.80;;;18.40;73.90;;;;;;5034735;28;20420;-52
2022/10/22 04:33:44;;;;;;;0.77;0.70;;;18.30;72.90;;;;;;5033401;28;20431;-52
2022/10/22 04:36:14;;;;;;;1.20;1.10;;;18.20;73.20;;;;;;5034238;28;20777;-49
2022/10/22 04:38:42;;;;;;;0.83;0.83;;;18.00;73.90;;;;;;5041088;28;20239;-53
2022/10/22 04:41:10;;;;;;;1.10;0.80;;;18.00;74.60;;;;;;5054403;28;20431;-50
2022/10/22 04:43:36;;;;;;;1.10;1.00;;;18.00;74.30;;;;;;5053703;28;20438;-49
2022/10/22 04:46:02;;;;;;;1.17;0.90;;;18.10;74.30;;;;;;5054415;28;20840;-52
2022/10/22 04:48:27;;;;;;;1.27;0.80;;;18.40;73.30;;;;;;5053885;28;20192;-52
2022/10/22 04:50:53;;;;;;;0.83;0.83;;;18.40;72.70;;;;;;5054408;28;20188;-52
2022/10/22 04:53:18;;;;;;;1.53;0.90;;;18.60;71.90;;;;;;5051787;28;20197;-52
2022/10/22 04:55:44;;;;;;;1.30;0.70;;;18.30;71.50;;;;;;5053825;28;20204;-52
2022/10/22 04:58:09;;;;;;;0.90;0.90;;;18.30;71.30;;;;;;5053471;28;20251;-52
2022/10/22 05:00:35;;;;;;;2.20;0.80;;;18.40;71.20;;;;;;5053812;28;20193;-53
2022/10/22 05:03:00;;;;;;;1.70;0.90;;;18.50;71.00;;;;;;5053541;28;20283;-53
2022/10/22 05:05:26;;;;;;;1.50;0.90;;;18.40;70.90;;;;;;5053638;28;20192;-49
2022/10/22 05:07:51;;;;;;;2.33;0.93;;;18.40;71.30;;;;;;5053697;28;20193;-52
2022/10/22 05:10:17;;;;;;;2.80;2.00;;;18.40;71.80;;;;;;5053619;28;20654;-52
2022/10/22 05:12:43;;;;;;;3.07;1.93;;;18.20;72.30;;;;;;5053604;28;20588;-53
2022/10/22 05:15:08;;;;;;;6.03;1.37;;;18.30;72.30;;;;;;5053365;28;20195;-52
2022/10/22 05:17:35;;;;;;;0.70;0.70;;;18.30;72.10;;;;;;5033345;28;20261;-49
2022/10/22 05:20:01;;;;;;;1.00;1.00;;;18.50;71.60;;;;;;5032009;28;20604;-52
2022/10/22 05:22:26;;;;;;;1.37;0.80;;;18.40;71.10;;;;;;5033039;28;20458;-52
2022/10/22 05:24:52;;;;;;;1.63;1.13;;;18.40;70.90;;;;;;5032250;28;20632;-51
2022/10/22 05:27:17;;;;;;;1.20;1.00;;;18.30;71.20;;;;;;5033174;28;20197;-51
2022/10/22 05:29:43;;;;;;;1.20;0.90;;;18.30;71.50;;;;;;5033667;28;20898;-53
2022/10/22 05:32:09;;;;;;;1.07;0.97;;;18.40;71.20;;;;;;5039764;28;20196;-53
2022/10/22 05:34:35;;;;;;;1.33;1.23;;;18.40;71.30;;;;;;5052924;28;20566;-52
2022/10/22 05:37:00;;;;;;;1.30;1.20;;;18.50;71.30;;;;;;5052674;28;20722;-53
2022/10/22 05:39:26;;;;;;;2.67;0.97;;;18.50;70.80;;;;;;5053164;28;20415;-51
2022/10/22 05:41:52;;;;;;;3.67;1.13;;;18.60;70.70;;;;;;5052807;28;20225;-53
2022/10/22 05:44:18;;;;;;;1.00;0.90;;;18.60;70.50;;;;;;5052899;28;20208;-53
2022/10/22 05:46:44;;;;;;;2.30;1.00;;;18.60;70.70;;;;;;5050710;28;20485;-53
2022/10/22 05:49:12;;;;;;;1.33;1.07;;;18.70;70.40;;;;;;5052922;28;20590;-51
2022/10/22 05:51:38;;;;;;;1.57;1.10;;;18.80;70.00;;;;;;5052557;28;20427;-51
2022/10/22 05:54:06;;;;;;;4.00;1.00;;;18.80;69.60;;;;;;5052555;28;20453;-49
2022/10/22 05:56:32;;;;;;;1.63;0.80;;;18.80;69.50;;;;;;5052495;28;20212;-51
2022/10/22 05:58:58;;;;;;;1.33;0.90;;;18.90;69.40;;;;;;5053003;28;20433;-50
2022/10/22 06:01:36;;;;;;;1.97;0.87;;;18.90;69.50;;;;;;5053030;28;20419;-49
2022/10/22 06:04:05;;;;;;;0.87;0.87;;;18.80;69.10;;;;;;5052481;28;20441;-52
2022/10/22 06:06:35;;;;;;;0.93;0.87;;;18.70;69.00;;;;;;5052210;28;20428;-48
2022/10/22 06:09:05;;;;;;;2.20;0.90;;;18.70;69.60;;;;;;5052814;28;20468;-52
2022/10/22 06:11:31;;;;;;;2.03;1.00;;;18.60;70.00;;;;;;5052374;28;20463;-51
2022/10/22 06:13:57;;;;;;;1.43;1.20;;;18.70;70.00;;;;;;5050545;28;20458;-48
2022/10/22 06:16:22;;;;;;;1.70;1.13;;;18.70;69.90;;;;;;5042564;28;20478;-52
2022/10/22 06:18:48;;;;;;;1.10;1.00;;;18.70;70.10;;;;;;5032306;28;20193;-52
2022/10/22 06:21:15;;;;;;;1.47;1.00;;;18.60;69.40;;;;;;5032857;28;20189;-49
2022/10/22 06:23:42;;;;;;;1.17;0.93;;;18.60;69.40;;;;;;5031562;28;20658;-52
2022/10/22 06:26:08;;;;;;;1.77;0.90;;;18.40;70.10;;;;;;5032644;28;20420;-51
2022/10/22 06:28:34;;;;;;;1.93;1.20;;;18.50;69.90;;;;;;5032200;28;20527;-50
2022/10/22 06:31:00;;;;;;;3.10;1.10;;;18.60;69.70;;;;;;5032456;28;20420;-52
2022/10/22 06:33:27;;;;;;;3.30;1.00;;;18.50;68.80;;;;;;5031639;28;20424;-48
2022/10/22 06:35:53;;;;;;;1.07;0.90;;;18.50;69.50;;;;;;5032337;28;20427;-52
2022/10/22 06:38:19;;;;;;;1.30;1.20;;;18.70;69.30;;;;;;5036118;28;20495;-52
2022/10/22 06:40:45;;;;;;;1.30;0.80;;;18.60;68.90;;;;;;5040559;28;20279;-50
2022/10/22 06:43:11;;;;;;;1.80;0.90;;;18.60;69.00;;;;;;5031496;28;20494;-49
2022/10/22 06:45:37;;;;;;;3.63;0.90;;;18.50;68.30;;;;;;5032209;28;20542;-53
2022/10/22 06:48:03;;;;;;;1.30;1.20;;;18.50;68.80;;;;;;5031757;28;20422;-50
2022/10/22 06:50:28;;;;;;;2.43;0.90;;;18.60;68.20;;;;;;5032076;28;20244;-51
2022/10/22 06:52:54;;;;;;;0.77;0.77;;;18.80;67.70;;;;;;5031341;28;20264;-51
2022/10/22 06:55:19;;;;;;;1.30;0.80;;;18.80;67.10;;;;;;5031939;28;20272;-52
2022/10/22 06:57:45;;;;;;;0.83;0.70;;;18.90;66.90;;;;;;5031460;28;20282;-52
2022/10/22 07:00:11;;;;;;;1.93;1.10;;;18.90;66.70;;;;;;5032077;28;20276;-49
2022/10/22 07:02:37;;;;;;;1.10;0.93;;;19.00;66.30;;;;;;5031330;28;20238;-50
2022/10/22 07:05:02;;;;;;;1.13;1.03;;;19.10;66.00;;;;;;5031532;28;20436;-49
2022/10/22 07:07:28;;;;;;;1.90;1.10;;;19.10;66.40;;;;;;5029654;28;20205;-52
2022/10/22 07:09:53;;;;;;;1.40;0.97;;;18.80;67.20;;;;;;5031776;28;20563;-49
2022/10/22 07:12:19;;;;;;;1.03;0.80;;;18.40;68.80;;;;;;5031145;28;20196;-49
2022/10/22 07:14:45;;;;;;;2.20;1.13;;;18.10;69.90;;;;;;5036869;28;20220;-51
2022/10/22 07:17:10;;;;;;;2.70;1.30;;;18.20;70.50;;;;;;5035442;28;20224;-50
2022/10/22 07:19:36;;;;;;;3.70;1.30;;;18.30;70.10;;;;;;5031566;28;20228;-52
2022/10/22 07:22:02;;;;;;;1.10;1.00;;;18.60;69.40;;;;;;5031067;28;20694;-52
2022/10/22 07:24:27;;;;;;;1.10;1.03;;;18.70;68.30;;;;;;5031031;28;20207;-51
2022/10/22 07:26:53;;;;;;;1.90;1.73;;;18.80;68.00;;;;;;5030973;28;20193;-52
2022/10/22 07:29:19;;;;;;;2.40;1.50;;;19.10;67.90;;;;;;5031871;28;20193;-50
2022/10/22 07:31:44;;;;;;;1.90;1.50;;;19.20;67.50;;;;;;5030876;28;20197;-52
2022/10/22 07:34:10;;;;;;;2.07;0.90;;;19.20;66.30;;;;;;5029667;28;20197;-53
2022/10/22 07:36:35;;;;;;;1.70;1.00;;;19.30;65.50;;;;;;5030694;28;20245;-52
2022/10/22 07:39:01;;;;;;;1.13;1.03;;;19.50;64.60;;;;;;5041515;28;20223;-51
2022/10/22 07:41:28;;;;;;;1.43;1.20;;;19.40;66.00;;;;;;5035000;28;20701;-54
2022/10/22 07:43:55;;;;;;;1.63;1.37;;;19.50;66.30;;;;;;5030805;28;20631;-53
2022/10/22 07:46:21;;;;;;;1.33;1.03;;;19.60;66.40;;;;;;5031242;28;20420;-51
2022/10/22 07:48:47;;;;;;;3.13;0.93;;;19.40;65.80;;;;;;5012157;28;20558;-52
2022/10/22 07:51:13;;;;;;;3.13;1.20;;;19.40;66.40;;;;;;5031165;28;20431;-52
2022/10/22 07:53:38;;;;;;;1.67;1.57;;;19.30;65.90;;;;;;5029872;28;20428;-52
2022/10/22 07:56:04;;;;;;;1.90;1.10;;;19.10;67.80;;;;;;5031083;28;20777;-52
2022/10/22 07:58:30;;;;;;;4.10;1.80;;;19.00;68.40;;;;;;5030503;28;20281;-51
2022/10/22 08:00:57;;;;;;;3.50;2.03;;;19.10;68.20;;;;;;5029220;28;20574;-52
2022/10/22 08:03:23;;;;;;;2.80;1.70;;;19.20;68.30;;;;;;5030362;28;20197;-52
2022/10/22 08:05:50;;;;;;;3.43;2.00;;;19.30;68.50;;;;;;5030989;28;20784;-52
2022/10/22 08:08:15;;;;;;;3.53;1.80;;;19.30;69.20;;;;;;5030538;28;20247;-51
2022/10/22 08:10:42;;;;;;;2.17;1.60;;;19.40;69.20;;;;;;5030613;28;21214;-48
2022/10/22 08:13:08;;;;;;;5.00;1.77;;;19.60;69.20;;;;;;5030105;28;20212;-52
2022/10/22 08:15:34;;;;;;;3.73;1.40;;;19.50;68.50;;;;;;5040076;28;20428;-51
2022/10/22 08:17:59;;;;;;;6.43;1.50;;;19.30;70.40;;;;;;5030380;28;20592;-53
2022/10/22 08:20:25;;;;;;;2.70;1.50;;;19.40;70.60;;;;;;5030624;28;20428;-53
2022/10/22 08:22:51;;;;;;;2.40;1.67;;;19.30;70.70;;;;;;5030532;28;20231;-53
2022/10/22 08:25:17;;;;;;;1.27;1.17;;;19.50;71.40;;;;;;5030506;28;20203;-52
2022/10/22 08:27:43;;;;;;;1.40;0.87;;;19.60;71.00;;;;;;5028814;28;20228;-52
2022/10/22 08:30:10;;;;;;;1.37;1.10;;;19.60;68.50;;;;;;5030495;28;21725;-53
2022/10/22 08:32:35;;;;;;;1.30;1.20;;;19.60;68.50;;;;;;5030122;28;20424;-52
2022/10/22 08:35:01;;;;;;;1.60;1.27;;;19.70;68.90;;;;;;5030229;28;20938;-52
2022/10/22 08:37:27;;;;;;;3.83;1.30;;;19.70;68.30;;;;;;5030033;28;20241;-53
2022/10/22 08:39:52;;;;;;;3.03;1.23;;;19.80;69.70;;;;;;5044971;28;20193;-51
2022/10/22 08:42:48;;;;;;;1.90;1.17;;;19.80;71.20;;;;;;5029985;28;20627;-52
2022/10/22 08:45:40;;;;;;;1.00;0.80;;;20.00;68.30;;;;;;5037051;28;20211;-53
2022/10/22 08:48:19;;;;;;;1.00;1.00;;;20.10;66.90;;;;;;5049855;28;20487;-53
2022/10/22 08:50:47;;;;;;;2.13;1.30;;;20.20;66.70;;;;;;5050281;28;20435;-53
2022/10/22 08:53:19;;;;;;;1.83;0.90;;;20.40;65.50;;;;;;5049417;28;20416;-53
2022/10/22 08:55:45;;;;;;;0.90;0.80;;;20.70;66.00;;;;;;5049426;28;20459;-53
2022/10/22 08:58:35;;;;;;;3.03;1.00;;;20.60;65.80;;;;;;5050063;28;20914;-52
2022/10/22 09:01:08;;;;;;;1.30;0.73;;;20.80;65.30;;;;;;5054255;28;20429;-53
2022/10/22 09:04:03;;;;;;;2.97;0.90;;;21.00;63.60;;;;;;5053210;28;20439;-49
2022/10/22 09:06:31;;;;;;;1.50;0.83;;;21.20;63.70;;;;;;5046467;28;20481;-50
2022/10/22 09:08:58;;;;;;;1.93;1.00;;;21.40;63.50;;;;;;5053430;28;20430;-49
2022/10/22 09:11:32;;;;;;;1.57;0.70;;;21.50;63.10;;;;;;5054234;28;20842;-50
2022/10/22 09:13:59;;;;;;;0.73;0.70;;;21.70;62.40;;;;;;5053576;28;21102;-50
2022/10/22 09:16:39;;;;;;;2.30;0.93;;;21.90;62.10;;;;;;5044083;28;20459;-52
2022/10/22 09:19:24;;;;;;;1.10;1.00;;;21.90;60.50;;;;;;5033931;28;20459;-52
2022/10/22 09:22:22;;;;;;;1.30;0.80;;;22.00;61.10;;;;;;5031866;28;20431;-49
2022/10/22 09:25:08;;;;;;;3.50;1.03;;;22.20;60.80;;;;;;5033338;28;20472;-49
2022/10/22 09:27:34;;;;;;;1.33;0.73;;;22.30;59.70;;;;;;5040814;28;20514;-50
2022/10/22 09:30:00;;;;;;;1.53;1.00;;;22.50;59.30;;;;;;5053457;28;20510;-49
2022/10/22 09:32:27;;;;;;;1.73;0.80;;;22.40;58.60;;;;;;5052972;28;20196;-48
2022/10/22 09:34:56;;;;;;;1.10;0.80;;;22.60;59.80;;;;;;5053083;28;20426;-48
2022/10/22 09:37:26;;;;;;;0.90;0.90;;;22.80;58.80;;;;;;5052420;28;20493;-50
2022/10/22 09:39:52;;;;;;;1.53;1.23;;;22.90;57.90;;;;;;5050374;28;20439;-49
2022/10/22 09:42:19;;;;;;;1.00;0.83;;;22.80;58.00;;;;;;5042816;28;20454;-50
2022/10/22 09:44:52;;;;;;;2.00;1.00;;;23.00;59.00;;;;;;5044618;28;20518;-51
2022/10/22 09:47:37;;;;;;;1.03;0.90;;;23.10;58.60;;;;;;5039658;28;20436;-50
2022/10/22 09:50:26;;;;;;;1.00;0.87;;;23.40;58.10;;;;;;5040138;28;20434;-50
2022/10/22 09:53:17;;;;;;;0.87;0.87;;;23.50;57.80;;;;;;5052553;28;20492;-50
2022/10/22 09:55:43;;;;;;;1.20;0.90;;;23.70;57.80;;;;;;5053112;28;20431;-49
2022/10/22 09:58:11;;;;;;;0.77;0.77;;;23.90;57.30;;;;;;5052466;28;20490;-49
2022/10/22 10:00:42;;;;;;;0.93;0.83;;;24.10;57.60;;;;;;5052921;28;20431;-52
2022/10/22 10:03:16;;;;;;;1.57;0.90;;;24.20;57.10;;;;;;5052048;28;20789;-53
2022/10/22 10:05:42;;;;;;;1.40;0.83;;;24.30;56.40;;;;;;5052802;28;20432;-52
2022/10/22 10:08:13;;;;;;;0.90;0.90;;;24.50;56.00;;;;;;5052174;28;20419;-50
2022/10/22 10:10:50;;;;;;;1.77;1.67;;;24.60;55.30;;;;;;5052111;28;20461;-52
2022/10/22 10:13:33;;;;;;;1.10;0.90;;;24.60;55.20;;;;;;5051639;28;20533;-53
2022/10/22 10:16:27;;;;;;;2.10;1.00;;;24.70;54.40;;;;;;5045484;28;20443;-53
2022/10/22 10:19:00;;;;;;;1.37;1.00;;;24.80;54.90;;;;;;5032524;28;20435;-52
2022/10/22 10:21:33;;;;;;;1.10;0.90;;;24.90;55.00;;;;;;5032528;28;20574;-48
2022/10/22 10:24:12;;;;;;;1.40;0.83;;;25.00;54.20;;;;;;5031996;28;20475;-51
2022/10/22 10:26:57;;;;;;;2.63;1.07;;;25.10;55.30;;;;;;5031993;28;20451;-53
2022/10/22 10:29:38;;;;;;;1.33;0.90;;;25.20;53.80;;;;;;5032837;28;20515;-51
2022/10/22 10:32:40;;;;;;;1.83;0.80;;;25.20;53.30;;;;;;5031621;28;20562;-53
2022/10/22 10:35:25;;;;;;;1.40;1.07;;;25.20;54.20;;;;;;5031982;28;20806;-51
2022/10/22 10:38:25;;;;;;;0.80;0.80;;;25.40;53.50;;;;;;5032399;28;21093;-50
2022/10/22 10:40:58;;;;;;;1.40;0.87;;;25.60;52.20;;;;;;5030705;28;20505;-50
2022/10/22 10:43:45;;;;;;;0.83;0.83;;;25.60;53.30;;;;;;5031339;28;20424;-53
2022/10/22 10:46:35;;;;;;;1.67;0.80;;;25.70;52.50;;;;;;5032104;28;20436;-53
2022/10/22 10:49:25;;;;;;;1.87;0.90;;;25.90;53.40;;;;;;5031927;28;20424;-53
2022/10/22 10:52:03;;;;;;;1.07;0.97;;;25.90;52.70;;;;;;5040245;28;20447;-52
2022/10/22 10:54:43;;;;;;;1.33;0.90;;;26.00;51.30;;;;;;5051336;28;20447;-53
2022/10/22 10:57:44;;;;;;;1.90;0.90;;;26.10;51.50;;;;;;5051311;28;20482;-53
2022/10/22 11:00:15;;;;;;;0.80;0.80;;;26.30;51.90;;;;;;5047643;28;20431;-50
2022/10/22 11:02:50;;;;;;;2.27;1.00;;;26.40;51.40;;;;;;5051242;28;20434;-53
2022/10/22 11:05:28;;;;;;;1.90;0.90;;;26.80;52.50;;;;;;5051708;28;20489;-54
2022/10/22 11:07:53;;;;;;;2.10;1.33;;;27.00;50.30;;;;;;5049509;28;20994;-53
2022/10/22 11:10:33;;;;;;;2.97;1.00;;;27.10;51.00;;;;;;5051804;28;20518;-50
2022/10/22 11:13:16;;;;;;;1.67;1.27;;;27.00;49.30;;;;;;5050935;28;20185;-53
2022/10/22 11:15:47;;;;;;;1.37;0.90;;;27.00;48.80;;;;;;5047036;28;20510;-54
2022/10/22 11:18:26;;;;;;;2.00;1.10;;;26.90;49.00;;;;;;5031192;28;20490;-54
2022/10/22 11:21:02;;;;;;;1.33;1.20;;;26.70;49.70;;;;;;5038696;28;20427;-53
2022/10/22 11:23:35;;;;;;;1.63;1.20;;;26.60;50.30;;;;;;5049610;28;20427;-54
2022/10/22 11:26:03;;;;;;;4.50;1.20;;;26.30;51.30;;;;;;5051437;28;20881;-53
2022/10/22 11:28:36;;;;;;;1.10;1.00;;;26.30;51.90;;;;;;5050822;28;20816;-52
2022/10/22 11:31:13;;;;;;;1.40;1.20;;;26.30;51.80;;;;;;5051414;28;20438;-53
2022/10/22 11:33:53;;;;;;;0.87;0.87;;;26.40;50.80;;;;;;5049977;28;20439;-53
2022/10/22 11:36:24;;;;;;;2.03;1.00;;;26.50;49.40;;;;;;5050679;28;20427;-54
2022/10/22 11:38:50;;;;;;;2.80;0.80;;;26.60;50.10;;;;;;5050576;28;20514;-53
2022/10/22 11:41:20;;;;;;;0.80;0.80;;;26.60;48.40;;;;;;5051226;28;20430;-51
2022/10/22 11:44:09;;;;;;;1.80;1.10;;;26.60;48.60;;;;;;5050387;28;20432;-54
2022/10/22 11:46:52;;;;;;;2.20;0.97;;;26.80;47.70;;;;;;5050162;28;20466;-50
2022/10/22 11:49:22;;;;;;;1.03;1.00;;;26.90;48.20;;;;;;5051034;28;20910;-53
2022/10/22 11:51:48;;;;;;;1.10;1.00;;;26.90;48.30;;;;;;5050400;28;20431;-50
2022/10/22 11:54:32;;;;;;;1.30;1.00;;;26.90;48.30;;;;;;5050511;28;20493;-54
2022/10/22 11:57:18;;;;;;;2.03;1.27;;;27.00;48.10;;;;;;5050397;28;20570;-51
2022/10/22 11:59:46;;;;;;;1.03;0.93;;;26.90;48.80;;;;;;5050956;28;20950;-54
2022/10/22 12:02:27;;;;;;;1.03;0.70;;;27.10;48.80;;;;;;5049127;28;20447;-51
2022/10/22 12:05:14;;;;;;;3.33;0.90;;;27.10;46.00;;;;;;5050777;28;20431;-53
2022/10/22 12:08:09;;;;;;;1.57;1.20;;;27.00;46.40;;;;;;5050163;28;20504;-52
2022/10/22 12:10:57;;;;;;;1.80;1.10;;;27.00;46.30;;;;;;5043560;28;20826;-53
2022/10/22 12:13:29;;;;;;;1.30;0.67;;;26.90;46.70;;;;;;5049733;28;20493;-53
2022/10/22 12:15:58;;;;;;;1.97;0.83;;;26.90;46.50;;;;;;5045558;28;20497;-54
2022/10/22 12:18:38;;;;;;;2.70;0.80;;;26.80;46.90;;;;;;5030626;28;20812;-53
2022/10/22 12:21:03;;;;;;;0.90;0.90;;;26.90;48.20;;;;;;5037960;28;20804;-51
2022/10/22 12:23:32;;;;;;;1.20;0.90;;;26.90;47.60;;;;;;5049864;28;20427;-51
2022/10/22 12:25:58;;;;;;;5.23;0.90;;;27.00;46.60;;;;;;5050864;28;20593;-52
2022/10/22 12:28:24;;;;;;;2.33;1.10;;;27.10;45.20;;;;;;5048830;28;20458;-53
2022/10/22 12:30:49;;;;;;;1.30;0.90;;;27.20;44.70;;;;;;5051040;28;20224;-54
2022/10/22 12:33:21;;;;;;;2.93;0.90;;;27.20;45.20;;;;;;5049854;28;20536;-53
2022/10/22 12:35:50;;;;;;;2.50;1.10;;;27.30;45.00;;;;;;5054590;28;20204;-54
2022/10/22 12:38:19;;;;;;;1.23;0.87;;;27.40;44.90;;;;;;5053390;28;20557;-53
2022/10/22 12:40:45;;;;;;;3.23;1.00;;;27.50;45.30;;;;;;5044139;28;20475;-53
2022/10/22 12:43:15;;;;;;;1.23;0.90;;;27.60;44.70;;;;;;5033548;28;20790;-53
2022/10/22 12:45:43;;;;;;;1.23;0.90;;;27.80;45.50;;;;;;5034434;28;20423;-53
2022/10/22 12:48:28;;;;;;;0.70;0.70;;;28.00;45.00;;;;;;5033614;28;20423;-53
2022/10/22 12:50:59;;;;;;;1.17;0.80;;;28.20;45.80;;;;;;5034265;28;20471;-54
2022/10/22 12:53:31;;;;;;;3.60;1.07;;;28.30;45.60;;;;;;5033404;28;20538;-54
2022/10/22 12:56:02;;;;;;;1.47;1.10;;;28.40;45.10;;;;;;5032722;28;20838;-54
2022/10/22 12:58:33;;;;;;;1.60;1.10;;;28.50;44.50;;;;;;5033830;28;20483;-54
2022/10/22 13:01:02;;;;;;;1.63;0.90;;;28.60;43.90;;;;;;5033998;28;20769;-53
2022/10/22 13:03:38;;;;;;;0.80;0.73;;;28.70;43.50;;;;;;5033351;28;20843;-53
2022/10/22 13:06:22;;;;;;;2.70;0.80;;;28.90;43.50;;;;;;5034033;28;20489;-54